Airfield :
LOGIN :

Register | Disclaimer

   EN    FR    IT 

 










Legend :    VFR   Marginal VFR   IFR   Intensive IFR   Very Intensive IFR
Visi :
Ceiling :
>= 8 km
>= 3000ft
5 to 8 km
1000 to 3000 ft
1500m to 5 km
500 to 1000 ft
800 to 1500m
200 to 500 ft
< 800m
< 200 ft
Symbols :   Thunderstorms  Fog  Heavy snow  Heavy precipitations  Wind > 20 kt
SIGMETs :     Misc.  Thunderstorms  Icing  Turbulence  Mountain Waves  Volcanic Ashes







- Airport Elevation : 465 ft
- IATA code : LEJ


EDDP - Leipzig Halle

CURRENT METAR :
  • 211720Z 03003KT 9999 FEW040 SCT060 BKN082 16/10 Q1020 NOSIG

EXPIRED METARs :
  • 211650Z 31003KT 9999 FEW040 SCT060 BKN084 16/09 Q1020 NOSIG
  • 211620Z 30004KT 9999 FEW038 BKN060 BKN082 16/10 Q1020 NOSIG
  • 211550Z 30004KT 270V330 9999 FEW035 BKN060 BKN085 17/09 Q1020 NOSIG
  • 211520Z 30004KT 9999 FEW035 BKN066 17/09 Q1020 NOSIG
  • 211450Z 28003KT 240V320 9999 FEW035 BKN045 17/10 Q1020 NOSIG

TAF TAF EDDP
Valid from the 21 at 18:00 until the 22 at 18:00 UTC


211700Z 2118/2218 VRB03KT 9999 FEW025
TEMPO 2203/2208 4000 BR
No reported NOTAMs for that airfield.



MET'MAP, your aeronautical weather chart ! - Copyright ORBIFLY December 2007 - Disclaimer

ORBIFLY MET'MAP TEAM :

Programming & Development : Alexandra Zaïnal
Concept & Development : Baudouin d'Aumeries
Co-Development & Prog : Marc-Olivier Méhu
Technical & hardware support : Manuel Goepfert

Contact : metmap@orbifly.com




SOURCES & CREDITS :

   NOAA